Menu Close Menu
Station Historical Data
Daily Summary for April 10, 2017 Units:  Metric    English   Both
« Previous Day
Next Day »
Daily Weekly Monthly Yearly Custom
  High: Low: Average:
Temperature: 27.1 °C 9.5 °C 17.7 °C
Dew Point: 9.9 °C -6.4 °C 3.5 °C
Humidity: 82% 27% 41%
Wind Speed: 3.2km/h 0km/h 0.2km/h
Wind Gust: 8km/h - -
Wind- - West
Pressure: 1026 hPa 1016.1 hPa -
Precipitation: 0.51 mm    
Historical Graphs
 
 
Tabular Data for April 10, 2017
Time Temperature Dew Point Pressure Wind Wind Speed Wind Gust Humidity Rainfall Rate (Hourly) solar Conditions
00:00 14 °C 4.8 °C 1022.2 hPa Calm     54% 0 mm WeatherDisplay:10.37 W/m2 RA
00:15 13.7 °C 4.5 °C 1022.2 hPa Calm     54% 0 mm WeatherDisplay:10.37 W/m2 SCT
00:30 13.2 °C 5.4 °C 1022.6 hPa Calm     59% 0 mm WeatherDisplay:10.37 W/m2 SCT
00:45 12.9 °C 5.3 °C 1022.6 hPa Calm     60% 0 mm WeatherDisplay:10.37 W/m2 SCT
01:00 13.3 °C 5.2 °C 1022.6 hPa Calm     58% 0 mm WeatherDisplay:10.37 W/m2 SCT
01:15 12.7 °C -3.6 °C 1022.6 hPa Calm     32% 0 mm WeatherDisplay:10.37 W/m2 SCT
01:30 11.6 °C -4.6 °C 1022.6 hPa Calm     32% 0 mm WeatherDisplay:10.37 W/m2 SCT
01:45 11.3 °C -4.8 °C 1022.6 hPa Calm     32% 0 mm WeatherDisplay:10.37 W/m2 SCT
02:00 10.7 °C -5.4 °C 1022.9 hPa Calm     32% 0 mm WeatherDisplay:10.37 W/m2 SCT
02:15 10.3 °C -5.7 °C 1022.2 hPa Calm     32% 0 mm WeatherDisplay:10.37 W/m2 SCT
02:30 10.2 °C -5.8 °C 1022.6 hPa Calm     32% 0 mm WeatherDisplay:10.37 W/m2 SCT
02:45 9.9 °C -6 °C 1022.6 hPa Calm     32% 0 mm WeatherDisplay:10.37 W/m2 SCT
03:00 9.8 °C -6.1 °C 1022.6 hPa Calm     32% 0 mm WeatherDisplay:10.37 W/m2 SCT
03:15 9.7 °C -6.2 °C 1022.6 hPa Calm     32% 0 mm WeatherDisplay:10.37 W/m2 SCT
03:30 9.7 °C -6.3 °C 1022.6 hPa Calm     32% 0 mm WeatherDisplay:10.37 W/m2 SCT
03:45 9.6 °C -6.3 °C 1022.6 hPa Calm     32% 0 mm WeatherDisplay:10.37 W/m2 SCT
04:00 9.6 °C -6.3 °C 1022.9 hPa Calm     32% 0 mm WeatherDisplay:10.37 W/m2 SCT
04:15 9.6 °C -6.3 °C 1022.9 hPa Calm     32% 0 mm WeatherDisplay:10.37 W/m2 SCT
04:30 9.6 °C -6.3 °C 1022.9 hPa Calm     32% 0 mm WeatherDisplay:10.37 W/m2 SCT
04:45 9.6 °C -6.4 °C 1022.2 hPa Calm     32% 0 mm WeatherDisplay:10.37 W/m2 SCT
05:00 9.6 °C -6.4 °C 1022.9 hPa Calm     32% 0 mm WeatherDisplay:10.37 W/m2 SCT
05:15 9.5 °C -6.4 °C 1023.2 hPa Calm     32% 0 mm WeatherDisplay:10.37 W/m2 SCT
05:30 9.5 °C -6.4 °C 1022.6 hPa Calm     32% 0 mm WeatherDisplay:10.37 W/m2 SCT
05:45 9.5 °C -6.4 °C 1023.6 hPa Calm     32% 0 mm WeatherDisplay:10.37 W/m2 SCT
06:00 9.5 °C -6.4 °C 1023.6 hPa Calm     32% 0 mm WeatherDisplay:10.37 W/m2 SCT
06:15 9.5 °C -6.4 °C 1020.5 hPa Calm     32% 0 mm WeatherDisplay:10.37 W/m2 SCT
06:30 9.5 °C -6.4 °C 1023.9 hPa Calm     32% 0 mm WeatherDisplay:10.37 W/m2 SCT
06:45 9.5 °C -6.4 °C 1024.3 hPa Calm     32% 0 mm WeatherDisplay:10.37 W/m2 SCT
07:00 9.5 °C -6.4 °C 1024.3 hPa Calm     32% 0 mm WeatherDisplay:10.37 W/m2 SCT
07:15 9.5 °C -6.4 °C 1024.3 hPa Calm     32% 0 mm WeatherDisplay:10.37 W/m2 SCT
07:30 9.5 °C -6.4 °C 1024.6 hPa Calm     32% 0 mm WeatherDisplay:10.37 W/m2 SCT
07:45 9.5 °C -6.4 °C 1024.6 hPa Calm     32% 0 mm WeatherDisplay:10.37 W/m2 SCT
08:00 9.5 °C -6.4 °C 1024.9 hPa Calm     32% 0 mm WeatherDisplay:10.37 W/m2 SCT
08:15 10.1 °C 7.2 °C 1025.3 hPa Calm     82% 0 mm WeatherDisplay:10.37 W/m2 SCT
08:30 11 °C 7.7 °C 1025.3 hPa Calm     80% 0 mm WeatherDisplay:10.37 W/m2 SCT
08:45 12 °C 8.1 °C 1025.6 hPa Calm     77% 0 mm WeatherDisplay:10.37 W/m2 SCT
09:00 12.9 °C 8.6 °C 1025.6 hPa Calm   3.2 km/h 75% 0 mm WeatherDisplay:10.37 W/m2 SCT
09:15 13.9 °C 8.7 °C 1025.6 hPa Calm   3.2 km/h 71% 0 mm WeatherDisplay:10.37 W/m2 SCT
09:30 14.3 °C 8.9 °C 1025.6 hPa Calm   3.2 km/h 70% 0 mm WeatherDisplay:10.37 W/m2 SCT
09:45 15.6 °C 9.2 °C 1025.6 hPa Calm   1.6 km/h 66% 0 mm WeatherDisplay:10.37 W/m2 SCT
10:00 16.9 °C 9.4 °C 1025.6 hPa Calm   3.2 km/h 61% 0 mm WeatherDisplay:10.37 W/m2 SCT
10:15 18.3 °C 9.9 °C 1025.6 hPa Calm   1.6 km/h 58% 0 mm WeatherDisplay:10.37 W/m2 SCT
10:30 18.8 °C 9.9 °C 1026 hPa Calm   3.2 km/h 56% 0 mm WeatherDisplay:10.37 W/m2 SCT
10:45 19.6 °C 8.8 °C 1026 hPa Calm   4.8 km/h 50% 0 mm WeatherDisplay:10.37 W/m2 SCT
11:00 20.5 °C 8.8 °C 1026 hPa Calm   4.8 km/h 47% 0 mm WeatherDisplay:10.37 W/m2 SCT
11:15 21.5 °C 9.1 °C 1026 hPa Calm   4.8 km/h 45% 0 mm WeatherDisplay:10.37 W/m2 SCT
11:30 22.3 °C 8.8 °C 1026 hPa NW 1.6 km/h 3.2 km/h 42% 0 mm WeatherDisplay:10.37 W/m2 SCT
11:45 22.8 °C 9.6 °C 1026 hPa Calm   4.8 km/h 43% 0 mm WeatherDisplay:10.37 W/m2 SCT
12:00 23.3 °C 8.2 °C 1026 hPa Calm   4.8 km/h 38% 0 mm WeatherDisplay:10.37 W/m2 SCT
12:15 24.2 °C 8.2 °C 1026 hPa Calm   4.8 km/h 36% 0 mm WeatherDisplay:10.37 W/m2 SCT
12:30 25.2 °C 6.4 °C 1025.6 hPa Calm   8 km/h 30% 0 mm WeatherDisplay:10.37 W/m2 SCT
12:45 25.7 °C 7.7 °C 1025.6 hPa NW 1.6 km/h 8 km/h 32% 0 mm WeatherDisplay:10.37 W/m2 SCT
13:00 25.6 °C 6.7 °C 1025.3 hPa Calm   4.8 km/h 30% 0 mm WeatherDisplay:10.37 W/m2 SCT
13:15 26.1 °C 8.6 °C 1025.3 hPa Calm   3.2 km/h 33% 0 mm WeatherDisplay:10.37 W/m2 SCT
13:30 26.2 °C 7.2 °C 1024.9 hPa WNW 3.2 km/h 4.8 km/h 30% 0 mm WeatherDisplay:10.37 W/m2 SCT
13:45 25.9 °C 9.7 °C 1024.9 hPa Calm   8 km/h 36% 0.51 mm WeatherDisplay:10.37 W/m2 SCT
14:15 26.4 °C 6.9 °C 1024.6 hPa Calm   3.2 km/h 29% 0 mm WeatherDisplay:10.37 W/m2 SCT
14:30 27.1 °C 7 °C 1016.1 hPa NW 1.6 km/h 4.8 km/h 28% 0 mm WeatherDisplay:10.37 W/m2 SCT
14:45 26.4 °C 6.4 °C 1024.3 hPa NE 1.6 km/h 4.8 km/h 28% 0 mm WeatherDisplay:10.37 W/m2 SCT
15:00 26.4 °C 6.9 °C 1023.9 hPa Calm   4.8 km/h 29% 0 mm WeatherDisplay:10.37 W/m2 SCT
15:15 26.1 °C 5.6 °C 1023.9 hPa Calm   3.2 km/h 27% 0 mm WeatherDisplay:10.37 W/m2 SCT
15:30 25.9 °C 5.4 °C 1023.6 hPa WNW 1.6 km/h 8 km/h 27% 0 mm WeatherDisplay:10.37 W/m2 SCT
15:45 26.1 °C 6.1 °C 1023.6 hPa Calm   4.8 km/h 28% 0 mm WeatherDisplay:10.37 W/m2 SCT
16:00 25.9 °C 6.5 °C 1023.2 hPa Calm   4.8 km/h 29% 0 mm WeatherDisplay:10.37 W/m2 SCT
16:15 25.9 °C 7.5 °C 1023.2 hPa Calm   3.2 km/h 31% 0 mm WeatherDisplay:10.37 W/m2 SCT
16:30 25.8 °C 6.4 °C 1023.2 hPa Calm   3.2 km/h 29% 0 mm WeatherDisplay:10.37 W/m2 SCT
16:45 25.7 °C 6.3 °C 1022.9 hPa Calm   3.2 km/h 29% 0 mm WeatherDisplay:10.37 W/m2 SCT
17:00 26.1 °C 7.1 °C 1022.6 hPa Calm   3.2 km/h 30% 0 mm WeatherDisplay:10.37 W/m2 SCT
17:15 26.2 °C 6.3 °C 1022.2 hPa Calm   3.2 km/h 28% 0 mm WeatherDisplay:10.37 W/m2 SCT
17:30 25.9 °C 6.5 °C 1022.2 hPa Calm   4.8 km/h 29% 0 mm WeatherDisplay:10.37 W/m2 SCT
17:45 25.7 °C 6.8 °C 1022.2 hPa Calm   1.6 km/h 30% 0 mm WeatherDisplay:10.37 W/m2 SCT
18:00 25.4 °C 5.6 °C 1022.2 hPa WNW 1.6 km/h 3.2 km/h 28% 0 mm WeatherDisplay:10.37 W/m2 SCT
18:15 25.2 °C 5.8 °C 1022.2 hPa Calm   3.2 km/h 29% 0 mm WeatherDisplay:10.37 W/m2 SCT
18:30 24.9 °C 6.2 °C 1021.9 hPa Calm   3.2 km/h 30% 0 mm WeatherDisplay:10.37 W/m2 SCT
18:45 24.7 °C 5.9 °C 1021.9 hPa Calm   4.8 km/h 30% 0 mm WeatherDisplay:10.37 W/m2 SCT
19:00 24.2 °C 6 °C 1021.9 hPa Calm   1.6 km/h 31% 0 mm WeatherDisplay:10.37 W/m2 SCT
19:15 23.7 °C 6.4 °C 1021.9 hPa Calm   1.6 km/h 33% 0 mm WeatherDisplay:10.37 W/m2 SCT
19:30 23.3 °C 5.7 °C 1021.9 hPa Calm   1.6 km/h 32% 0 mm WeatherDisplay:10.37 W/m2 SCT
19:45 22.9 °C 6.7 °C 1022.2 hPa Calm   1.6 km/h 35% 0 mm WeatherDisplay:10.37 W/m2 SCT
20:00 22.3 °C 7.6 °C 1021.9 hPa Calm     39% 0 mm WeatherDisplay:10.37 W/m2 SCT
20:15 21.6 °C 7.4 °C 1022.2 hPa Calm     40% 0 mm WeatherDisplay:10.37 W/m2 SCT
20:30 20.8 °C 7.1 °C 1022.2 hPa Calm     41% 0 mm WeatherDisplay:10.37 W/m2 SCT
20:45 20.2 °C 7.6 °C 1022.2 hPa Calm     44% 0 mm WeatherDisplay:10.37 W/m2 SCT
21:00 19.6 °C 7.7 °C 1022.6 hPa Calm     46% 0 mm WeatherDisplay:10.37 W/m2 SCT
21:15 19.1 °C 7.8 °C 1022.6 hPa Calm     48% 0 mm WeatherDisplay:10.37 W/m2 SCT
21:30 18.5 °C 8.2 °C 1022.6 hPa Calm     51% 0 mm WeatherDisplay:10.37 W/m2 SCT
21:45 18.1 °C 8.6 °C 1022.9 hPa Calm     54% 0 mm WeatherDisplay:10.37 W/m2 SCT
22:00 17.8 °C 8.4 °C 1023.2 hPa Calm     54% 0 mm WeatherDisplay:10.37 W/m2 SCT
22:15 17.3 °C 8.4 °C 1023.2 hPa Calm     56% 0 mm WeatherDisplay:10.37 W/m2 SCT
22:30 17.1 °C 9 °C 1023.9 hPa Calm     59% 0 mm WeatherDisplay:10.37 W/m2 SCT
22:45 16.7 °C 9.4 °C 1023.9 hPa Calm     62% 0 mm WeatherDisplay:10.37 W/m2 SCT
23:00 16.7 °C 9.1 °C 1024.3 hPa Calm     61% 0 mm WeatherDisplay:10.37 W/m2 SCT
23:15 16.4 °C 9.6 °C 1024.3 hPa Calm     64% 0 mm WeatherDisplay:10.37 W/m2 SCT
23:30 16.1 °C 9.5 °C 1024.3 hPa Calm     65% 0 mm WeatherDisplay:10.37 W/m2 SCT
23:45 15.8 °C 9.7 °C 1024.6 hPa Calm     67% 0 mm WeatherDisplay:10.37 W/m2 SCT
Piedmont Bend
Compliments of Weather Underground - 4 mb